sensor_id;sensor_type;location;lat;lon;timestamp;P1;durP1;ratioP1;P2;durP2;ratioP2
7813;SDS011;3952;48.364;16.022;2023-04-21T00:01:25;17.90;;;16.20;;
7813;SDS011;3952;48.364;16.022;2023-04-21T00:03:54;19.73;;;15.90;;
7813;SDS011;3952;48.364;16.022;2023-04-21T00:06:22;17.70;;;16.07;;
7813;SDS011;3952;48.364;16.022;2023-04-21T00:08:51;21.10;;;17.00;;
7813;SDS011;3952;48.364;16.022;2023-04-21T00:11:19;20.40;;;18.30;;
7813;SDS011;3952;48.364;16.022;2023-04-21T00:13:46;22.60;;;20.17;;
7813;SDS011;3952;48.364;16.022;2023-04-21T00:16:13;19.27;;;17.37;;
7813;SDS011;3952;48.364;16.022;2023-04-21T00:18:41;20.37;;;17.80;;
7813;SDS011;3952;48.364;16.022;2023-04-21T00:21:08;21.37;;;18.13;;
7813;SDS011;3952;48.364;16.022;2023-04-21T00:23:36;20.33;;;18.23;;
7813;SDS011;3952;48.364;16.022;2023-04-21T00:26:04;20.03;;;18.03;;
7813;SDS011;3952;48.364;16.022;2023-04-21T00:28:31;19.20;;;17.17;;
7813;SDS011;3952;48.364;16.022;2023-04-21T00:30:58;20.13;;;17.70;;
7813;SDS011;3952;48.364;16.022;2023-04-21T00:33:25;20.07;;;17.57;;
7813;SDS011;3952;48.364;16.022;2023-04-21T00:35:52;18.80;;;16.87;;
7813;SDS011;3952;48.364;16.022;2023-04-21T00:38:21;20.07;;;17.30;;
7813;SDS011;3952;48.364;16.022;2023-04-21T00:40:49;22.70;;;17.10;;
7813;SDS011;3952;48.364;16.022;2023-04-21T00:43:16;18.07;;;16.17;;
7813;SDS011;3952;48.364;16.022;2023-04-21T00:45:44;17.37;;;15.50;;
7813;SDS011;3952;48.364;16.022;2023-04-21T00:48:11;19.47;;;16.50;;
7813;SDS011;3952;48.364;16.022;2023-04-21T00:50:39;19.37;;;16.27;;
7813;SDS011;3952;48.364;16.022;2023-04-21T00:53:06;17.93;;;16.00;;
7813;SDS011;3952;48.364;16.022;2023-04-21T00:55:34;21.67;;;16.30;;
7813;SDS011;3952;48.364;16.022;2023-04-21T00:58:03;21.43;;;17.57;;
7813;SDS011;3952;48.364;16.022;2023-04-21T01:00:31;20.83;;;16.30;;
7813;SDS011;3952;48.364;16.022;2023-04-21T01:02:59;20.07;;;16.67;;
7813;SDS011;3952;48.364;16.022;2023-04-21T01:05:27;19.20;;;17.10;;
7813;SDS011;3952;48.364;16.022;2023-04-21T01:07:54;20.17;;;17.30;;
7813;SDS011;3952;48.364;16.022;2023-04-21T01:10:21;18.07;;;16.17;;
7813;SDS011;3952;48.364;16.022;2023-04-21T01:12:48;19.67;;;16.83;;
7813;SDS011;3952;48.364;16.022;2023-04-21T01:15:17;18.40;;;16.50;;
7813;SDS011;3952;48.364;16.022;2023-04-21T01:17:44;21.53;;;16.40;;
7813;SDS011;3952;48.364;16.022;2023-04-21T01:20:12;20.17;;;16.27;;
7813;SDS011;3952;48.364;16.022;2023-04-21T01:22:41;18.10;;;16.23;;
7813;SDS011;3952;48.364;16.022;2023-04-21T01:25:09;19.37;;;16.37;;
7813;SDS011;3952;48.364;16.022;2023-04-21T01:27:37;18.03;;;16.13;;
7813;SDS011;3952;48.364;16.022;2023-04-21T01:30:04;19.13;;;16.33;;
7813;SDS011;3952;48.364;16.022;2023-04-21T01:32:34;21.20;;;17.27;;
7813;SDS011;3952;48.364;16.022;2023-04-21T01:35:01;19.60;;;17.13;;
7813;SDS011;3952;48.364;16.022;2023-04-21T01:37:31;19.17;;;16.87;;
7813;SDS011;3952;48.364;16.022;2023-04-21T01:40:01;19.37;;;16.97;;
7813;SDS011;3952;48.364;16.022;2023-04-21T01:42:30;19.20;;;16.90;;
7813;SDS011;3952;48.364;16.022;2023-04-21T01:44:58;19.77;;;16.37;;
7813;SDS011;3952;48.364;16.022;2023-04-21T01:47:25;21.33;;;17.57;;
7813;SDS011;3952;48.364;16.022;2023-04-21T01:49:53;21.80;;;18.07;;
7813;SDS011;3952;48.364;16.022;2023-04-21T01:52:20;25.23;;;18.33;;
7813;SDS011;3952;48.364;16.022;2023-04-21T01:54:47;17.73;;;15.17;;
7813;SDS011;3952;48.364;16.022;2023-04-21T01:57:16;20.10;;;16.70;;
7813;SDS011;3952;48.364;16.022;2023-04-21T01:59:43;16.70;;;15.03;;
7813;SDS011;3952;48.364;16.022;2023-04-21T02:02:10;20.47;;;16.60;;
7813;SDS011;3952;48.364;16.022;2023-04-21T02:04:38;18.50;;;16.00;;
7813;SDS011;3952;48.364;16.022;2023-04-21T02:07:05;16.57;;;14.77;;
7813;SDS011;3952;48.364;16.022;2023-04-21T02:09:32;17.10;;;15.37;;
7813;SDS011;3952;48.364;16.022;2023-04-21T02:11:59;19.80;;;17.03;;
7813;SDS011;3952;48.364;16.022;2023-04-21T02:14:29;17.53;;;15.63;;
7813;SDS011;3952;48.364;16.022;2023-04-21T02:16:56;16.83;;;15.13;;
7813;SDS011;3952;48.364;16.022;2023-04-21T02:19:23;23.07;;;16.60;;
7813;SDS011;3952;48.364;16.022;2023-04-21T02:21:51;17.77;;;14.93;;
7813;SDS011;3952;48.364;16.022;2023-04-21T02:24:18;17.90;;;16.10;;
7813;SDS011;3952;48.364;16.022;2023-04-21T02:26:45;16.70;;;15.00;;
7813;SDS011;3952;48.364;16.022;2023-04-21T02:29:12;18.30;;;16.23;;
7813;SDS011;3952;48.364;16.022;2023-04-21T02:31:41;17.33;;;15.53;;
7813;SDS011;3952;48.364;16.022;2023-04-21T02:34:08;15.80;;;14.17;;
7813;SDS011;3952;48.364;16.022;2023-04-21T02:36:35;16.70;;;15.00;;
7813;SDS011;3952;48.364;16.022;2023-04-21T02:39:02;18.33;;;15.43;;
7813;SDS011;3952;48.364;16.022;2023-04-21T02:41:30;19.50;;;15.60;;
7813;SDS011;3952;48.364;16.022;2023-04-21T02:43:57;20.23;;;16.03;;
7813;SDS011;3952;48.364;16.022;2023-04-21T02:46:24;17.40;;;15.70;;
7813;SDS011;3952;48.364;16.022;2023-04-21T02:48:53;20.00;;;16.87;;
7813;SDS011;3952;48.364;16.022;2023-04-21T02:51:20;40.50;;;27.23;;
7813;SDS011;3952;48.364;16.022;2023-04-21T02:53:47;27.60;;;19.43;;
7813;SDS011;3952;48.364;16.022;2023-04-21T02:56:14;24.13;;;19.67;;
7813;SDS011;3952;48.364;16.022;2023-04-21T02:58:41;27.43;;;22.20;;
7813;SDS011;3952;48.364;16.022;2023-04-21T03:01:09;24.47;;;20.40;;
7813;SDS011;3952;48.364;16.022;2023-04-21T03:03:36;26.53;;;21.80;;
7813;SDS011;3952;48.364;16.022;2023-04-21T03:06:05;27.77;;;21.30;;
7813;SDS011;3952;48.364;16.022;2023-04-21T03:08:32;24.67;;;20.37;;
7813;SDS011;3952;48.364;16.022;2023-04-21T03:11:00;83.13;;;46.43;;
7813;SDS011;3952;48.364;16.022;2023-04-21T03:13:27;59.13;;;36.83;;
7813;SDS011;3952;48.364;16.022;2023-04-21T03:15:54;38.67;;;27.73;;
7813;SDS011;3952;48.364;16.022;2023-04-21T03:18:21;29.37;;;22.33;;
7813;SDS011;3952;48.364;16.022;2023-04-21T03:20:48;23.53;;;18.97;;
7813;SDS011;3952;48.364;16.022;2023-04-21T03:23:17;23.47;;;18.10;;
7813;SDS011;3952;48.364;16.022;2023-04-21T03:25:44;20.70;;;18.47;;
7813;SDS011;3952;48.364;16.022;2023-04-21T03:28:11;25.63;;;19.07;;
7813;SDS011;3952;48.364;16.022;2023-04-21T03:30:39;26.23;;;18.20;;
7813;SDS011;3952;48.364;16.022;2023-04-21T03:33:07;21.53;;;17.83;;
7813;SDS011;3952;48.364;16.022;2023-04-21T03:35:34;19.50;;;16.80;;
7813;SDS011;3952;48.364;16.022;2023-04-21T03:38:01;19.07;;;16.57;;
7813;SDS011;3952;48.364;16.022;2023-04-21T03:40:30;21.23;;;18.13;;
7813;SDS011;3952;48.364;16.022;2023-04-21T03:42:57;19.00;;;16.93;;
7813;SDS011;3952;48.364;16.022;2023-04-21T03:45:24;20.57;;;17.07;;
7813;SDS011;3952;48.364;16.022;2023-04-21T03:47:52;23.93;;;17.33;;
7813;SDS011;3952;48.364;16.022;2023-04-21T03:50:21;24.47;;;18.73;;
7813;SDS011;3952;48.364;16.022;2023-04-21T03:52:48;23.00;;;17.33;;
7813;SDS011;3952;48.364;16.022;2023-04-21T03:55:15;21.60;;;17.17;;
7813;SDS011;3952;48.364;16.022;2023-04-21T03:57:44;20.03;;;17.13;;
7813;SDS011;3952;48.364;16.022;2023-04-21T04:00:12;20.93;;;17.03;;
7813;SDS011;3952;48.364;16.022;2023-04-21T04:02:39;19.30;;;16.27;;
7813;SDS011;3952;48.364;16.022;2023-04-21T04:05:07;22.80;;;17.20;;
7813;SDS011;3952;48.364;16.022;2023-04-21T04:07:35;20.30;;;17.23;;
7813;SDS011;3952;48.364;16.022;2023-04-21T04:10:02;20.83;;;17.80;;
7813;SDS011;3952;48.364;16.022;2023-04-21T04:12:30;25.67;;;18.37;;
7813;SDS011;3952;48.364;16.022;2023-04-21T04:14:58;20.13;;;17.30;;
7813;SDS011;3952;48.364;16.022;2023-04-21T04:17:26;24.33;;;17.80;;
7813;SDS011;3952;48.364;16.022;2023-04-21T04:19:54;21.37;;;17.57;;
7813;SDS011;3952;48.364;16.022;2023-04-21T04:22:21;23.40;;;18.17;;
7813;SDS011;3952;48.364;16.022;2023-04-21T04:24:48;23.00;;;18.80;;
7813;SDS011;3952;48.364;16.022;2023-04-21T04:27:15;24.00;;;19.43;;
7813;SDS011;3952;48.364;16.022;2023-04-21T04:29:44;25.53;;;18.30;;
7813;SDS011;3952;48.364;16.022;2023-04-21T04:32:14;24.30;;;18.73;;
7813;SDS011;3952;48.364;16.022;2023-04-21T04:34:42;21.53;;;18.17;;
7813;SDS011;3952;48.364;16.022;2023-04-21T04:37:09;20.03;;;17.10;;
7813;SDS011;3952;48.364;16.022;2023-04-21T04:39:37;29.07;;;19.67;;
7813;SDS011;3952;48.364;16.022;2023-04-21T04:42:05;24.63;;;18.93;;
7813;SDS011;3952;48.364;16.022;2023-04-21T04:44:34;22.47;;;18.87;;
7813;SDS011;3952;48.364;16.022;2023-04-21T04:47:01;23.70;;;18.83;;
7813;SDS011;3952;48.364;16.022;2023-04-21T04:49:30;27.63;;;19.43;;
7813;SDS011;3952;48.364;16.022;2023-04-21T04:51:58;24.03;;;18.73;;
7813;SDS011;3952;48.364;16.022;2023-04-21T04:54:26;25.20;;;19.53;;
7813;SDS011;3952;48.364;16.022;2023-04-21T04:56:54;24.67;;;19.93;;
7813;SDS011;3952;48.364;16.022;2023-04-21T04:59:21;22.10;;;19.03;;
7813;SDS011;3952;48.364;16.022;2023-04-21T05:01:49;26.33;;;19.33;;
7813;SDS011;3952;48.364;16.022;2023-04-21T05:04:16;26.27;;;19.73;;
7813;SDS011;3952;48.364;16.022;2023-04-21T05:06:45;31.40;;;20.83;;
7813;SDS011;3952;48.364;16.022;2023-04-21T05:09:12;26.13;;;20.77;;
7813;SDS011;3952;48.364;16.022;2023-04-21T05:11:40;23.57;;;20.17;;
7813;SDS011;3952;48.364;16.022;2023-04-21T05:14:07;27.90;;;20.50;;
7813;SDS011;3952;48.364;16.022;2023-04-21T05:16:34;24.97;;;19.40;;
7813;SDS011;3952;48.364;16.022;2023-04-21T05:19:01;28.50;;;20.57;;
7813;SDS011;3952;48.364;16.022;2023-04-21T05:21:29;28.43;;;21.03;;
7813;SDS011;3952;48.364;16.022;2023-04-21T05:23:59;27.27;;;20.70;;
7813;SDS011;3952;48.364;16.022;2023-04-21T05:26:26;23.67;;;20.33;;
7813;SDS011;3952;48.364;16.022;2023-04-21T05:28:54;22.37;;;20.00;;
7813;SDS011;3952;48.364;16.022;2023-04-21T05:31:23;26.10;;;20.20;;
7813;SDS011;3952;48.364;16.022;2023-04-21T05:33:50;23.43;;;20.73;;
7813;SDS011;3952;48.364;16.022;2023-04-21T05:36:18;25.83;;;20.97;;
7813;SDS011;3952;48.364;16.022;2023-04-21T05:38:45;24.70;;;20.27;;
7813;SDS011;3952;48.364;16.022;2023-04-21T05:41:14;22.67;;;20.23;;
7813;SDS011;3952;48.364;16.022;2023-04-21T05:43:41;28.60;;;20.90;;
7813;SDS011;3952;48.364;16.022;2023-04-21T05:46:08;26.00;;;19.93;;
7813;SDS011;3952;48.364;16.022;2023-04-21T05:48:36;25.03;;;19.53;;
7813;SDS011;3952;48.364;16.022;2023-04-21T05:51:07;24.87;;;20.40;;
7813;SDS011;3952;48.364;16.022;2023-04-21T05:53:35;29.00;;;19.63;;
7813;SDS011;3952;48.364;16.022;2023-04-21T05:56:03;25.10;;;20.60;;
7813;SDS011;3952;48.364;16.022;2023-04-21T05:58:33;21.63;;;18.50;;
7813;SDS011;3952;48.364;16.022;2023-04-21T06:01:01;23.80;;;18.97;;
7813;SDS011;3952;48.364;16.022;2023-04-21T06:03:29;22.53;;;19.90;;
7813;SDS011;3952;48.364;16.022;2023-04-21T06:05:56;23.00;;;18.97;;
7813;SDS011;3952;48.364;16.022;2023-04-21T06:08:25;23.10;;;19.50;;
7813;SDS011;3952;48.364;16.022;2023-04-21T06:10:52;20.40;;;18.40;;
7813;SDS011;3952;48.364;16.022;2023-04-21T06:13:19;20.17;;;18.10;;
7813;SDS011;3952;48.364;16.022;2023-04-21T06:15:48;20.77;;;18.53;;
7813;SDS011;3952;48.364;16.022;2023-04-21T06:18:15;19.17;;;17.13;;
7813;SDS011;3952;48.364;16.022;2023-04-21T06:20:48;18.13;;;16.33;;
7813;SDS011;3952;48.364;16.022;2023-04-21T06:23:15;19.50;;;17.70;;
7813;SDS011;3952;48.364;16.022;2023-04-21T06:25:43;18.57;;;16.70;;
7813;SDS011;3952;48.364;16.022;2023-04-21T06:28:10;23.80;;;18.03;;
7813;SDS011;3952;48.364;16.022;2023-04-21T06:30:37;17.50;;;15.70;;
7813;SDS011;3952;48.364;16.022;2023-04-21T06:33:06;18.00;;;15.13;;
7813;SDS011;3952;48.364;16.022;2023-04-21T06:35:33;15.77;;;14.23;;
7813;SDS011;3952;48.364;16.022;2023-04-21T06:38:00;14.23;;;13.00;;
7813;SDS011;3952;48.364;16.022;2023-04-21T06:40:27;13.33;;;12.13;;
7813;SDS011;3952;48.364;16.022;2023-04-21T06:42:55;14.07;;;12.77;;
7813;SDS011;3952;48.364;16.022;2023-04-21T06:45:22;12.37;;;11.27;;
7813;SDS011;3952;48.364;16.022;2023-04-21T06:47:49;13.10;;;11.80;;
7813;SDS011;3952;48.364;16.022;2023-04-21T06:50:18;11.87;;;10.97;;
7813;SDS011;3952;48.364;16.022;2023-04-21T06:52:45;11.97;;;11.13;;
7813;SDS011;3952;48.364;16.022;2023-04-21T06:55:12;11.90;;;10.70;;
7813;SDS011;3952;48.364;16.022;2023-04-21T06:57:39;12.87;;;11.23;;
7813;SDS011;3952;48.364;16.022;2023-04-21T07:00:07;12.40;;;11.27;;
7813;SDS011;3952;48.364;16.022;2023-04-21T07:02:35;11.50;;;10.50;;
7813;SDS011;3952;48.364;16.022;2023-04-21T07:05:03;11.87;;;10.73;;
7813;SDS011;3952;48.364;16.022;2023-04-21T07:07:32;11.03;;;10.10;;
7813;SDS011;3952;48.364;16.022;2023-04-21T07:09:59;11.87;;;10.97;;
7813;SDS011;3952;48.364;16.022;2023-04-21T07:12:26;11.00;;;9.90;;
7813;SDS011;3952;48.364;16.022;2023-04-21T07:14:54;11.20;;;10.30;;
7813;SDS011;3952;48.364;16.022;2023-04-21T07:17:21;12.03;;;10.83;;
7813;SDS011;3952;48.364;16.022;2023-04-21T07:19:48;9.13;;;8.23;;
7813;SDS011;3952;48.364;16.022;2023-04-21T07:22:15;7.27;;;6.37;;
7813;SDS011;3952;48.364;16.022;2023-04-21T07:24:44;6.83;;;6.23;;
7813;SDS011;3952;48.364;16.022;2023-04-21T07:27:11;7.03;;;6.33;;
7813;SDS011;3952;48.364;16.022;2023-04-21T07:29:38;6.23;;;5.63;;
7813;SDS011;3952;48.364;16.022;2023-04-21T07:32:05;7.70;;;5.77;;
7813;SDS011;3952;48.364;16.022;2023-04-21T07:34:32;8.90;;;5.47;;
7813;SDS011;3952;48.364;16.022;2023-04-21T07:37:00;6.87;;;5.80;;
7813;SDS011;3952;48.364;16.022;2023-04-21T07:39:27;6.57;;;5.33;;
7813;SDS011;3952;48.364;16.022;2023-04-21T07:41:55;6.07;;;5.53;;
7813;SDS011;3952;48.364;16.022;2023-04-21T07:44:22;7.77;;;5.80;;
7813;SDS011;3952;48.364;16.022;2023-04-21T07:46:49;6.73;;;5.93;;
7813;SDS011;3952;48.364;16.022;2023-04-21T07:49:17;8.73;;;6.67;;
7813;SDS011;3952;48.364;16.022;2023-04-21T07:51:44;6.03;;;5.63;;
7813;SDS011;3952;48.364;16.022;2023-04-21T07:54:11;7.27;;;5.70;;
7813;SDS011;3952;48.364;16.022;2023-04-21T07:56:38;6.50;;;5.47;;
7813;SDS011;3952;48.364;16.022;2023-04-21T07:59:07;6.67;;;5.97;;
7813;SDS011;3952;48.364;16.022;2023-04-21T08:01:34;6.37;;;5.80;;
7813;SDS011;3952;48.364;16.022;2023-04-21T08:04:01;6.50;;;5.90;;
7813;SDS011;3952;48.364;16.022;2023-04-21T08:06:28;7.37;;;5.87;;
7813;SDS011;3952;48.364;16.022;2023-04-21T08:08:57;6.07;;;5.40;;
7813;SDS011;3952;48.364;16.022;2023-04-21T08:11:24;12.30;;;5.63;;
7813;SDS011;3952;48.364;16.022;2023-04-21T08:13:52;5.60;;;5.10;;
7813;SDS011;3952;48.364;16.022;2023-04-21T08:16:21;6.23;;;5.10;;
7813;SDS011;3952;48.364;16.022;2023-04-21T08:18:48;5.57;;;5.17;;
7813;SDS011;3952;48.364;16.022;2023-04-21T08:21:15;5.43;;;4.77;;
7813;SDS011;3952;48.364;16.022;2023-04-21T08:23:42;7.23;;;5.10;;
7813;SDS011;3952;48.364;16.022;2023-04-21T08:26:09;5.13;;;4.23;;
7813;SDS011;3952;48.364;16.022;2023-04-21T08:28:37;4.87;;;4.57;;
7813;SDS011;3952;48.364;16.022;2023-04-21T08:31:04;5.03;;;4.53;;
7813;SDS011;3952;48.364;16.022;2023-04-21T08:33:33;4.70;;;4.30;;
7813;SDS011;3952;48.364;16.022;2023-04-21T08:36:00;6.43;;;4.57;;
7813;SDS011;3952;48.364;16.022;2023-04-21T08:38:28;8.00;;;3.77;;
7813;SDS011;3952;48.364;16.022;2023-04-21T08:40:55;6.03;;;4.13;;
7813;SDS011;3952;48.364;16.022;2023-04-21T08:43:25;5.60;;;3.80;;
7813;SDS011;3952;48.364;16.022;2023-04-21T08:45:52;6.67;;;3.57;;
7813;SDS011;3952;48.364;16.022;2023-04-21T08:48:20;8.97;;;4.00;;
7813;SDS011;3952;48.364;16.022;2023-04-21T08:50:50;3.67;;;3.30;;
7813;SDS011;3952;48.364;16.022;2023-04-21T08:53:18;7.97;;;3.90;;
7813;SDS011;3952;48.364;16.022;2023-04-21T08:55:48;6.53;;;3.40;;
7813;SDS011;3952;48.364;16.022;2023-04-21T08:58:18;9.30;;;2.87;;
7813;SDS011;3952;48.364;16.022;2023-04-21T09:00:46;7.10;;;3.40;;
7813;SDS011;3952;48.364;16.022;2023-04-21T09:03:15;4.87;;;3.10;;
7813;SDS011;3952;48.364;16.022;2023-04-21T09:05:56;11.60;;;4.10;;
7813;SDS011;3952;48.364;16.022;2023-04-21T09:08:25;8.47;;;3.60;;
7813;SDS011;3952;48.364;16.022;2023-04-21T09:10:55;6.03;;;3.17;;
7813;SDS011;3952;48.364;16.022;2023-04-21T09:13:27;6.60;;;2.97;;
7813;SDS011;3952;48.364;16.022;2023-04-21T09:15:55;4.70;;;3.40;;
7813;SDS011;3952;48.364;16.022;2023-04-21T09:18:23;11.67;;;3.63;;
7813;SDS011;3952;48.364;16.022;2023-04-21T09:20:52;7.40;;;3.37;;
7813;SDS011;3952;48.364;16.022;2023-04-21T09:23:38;10.10;;;3.27;;
7813;SDS011;3952;48.364;16.022;2023-04-21T09:26:06;9.10;;;3.43;;
7813;SDS011;3952;48.364;16.022;2023-04-21T09:28:34;10.37;;;3.50;;
7813;SDS011;3952;48.364;16.022;2023-04-21T09:31:02;5.97;;;3.67;;
7813;SDS011;3952;48.364;16.022;2023-04-21T09:33:31;10.83;;;3.50;;
7813;SDS011;3952;48.364;16.022;2023-04-21T09:36:00;6.13;;;3.37;;
7813;SDS011;3952;48.364;16.022;2023-04-21T09:38:29;7.30;;;3.30;;
7813;SDS011;3952;48.364;16.022;2023-04-21T09:40:58;9.33;;;3.70;;
7813;SDS011;3952;48.364;16.022;2023-04-21T09:43:25;5.10;;;3.23;;
7813;SDS011;3952;48.364;16.022;2023-04-21T09:45:53;4.93;;;3.50;;
7813;SDS011;3952;48.364;16.022;2023-04-21T09:48:21;8.67;;;3.77;;
7813;SDS011;3952;48.364;16.022;2023-04-21T09:50:54;4.67;;;3.23;;
7813;SDS011;3952;48.364;16.022;2023-04-21T09:53:23;5.27;;;3.00;;
7813;SDS011;3952;48.364;16.022;2023-04-21T09:55:56;15.53;;;3.23;;
7813;SDS011;3952;48.364;16.022;2023-04-21T09:58:25;11.13;;;3.60;;
7813;SDS011;3952;48.364;16.022;2023-04-21T10:00:56;7.40;;;3.30;;
7813;SDS011;3952;48.364;16.022;2023-04-21T10:03:24;6.13;;;3.30;;
7813;SDS011;3952;48.364;16.022;2023-04-21T10:05:54;10.00;;;3.60;;
7813;SDS011;3952;48.364;16.022;2023-04-21T10:08:21;5.60;;;3.73;;
7813;SDS011;3952;48.364;16.022;2023-04-21T10:10:48;9.80;;;3.73;;
7813;SDS011;3952;48.364;16.022;2023-04-21T10:13:18;5.97;;;3.90;;
7813;SDS011;3952;48.364;16.022;2023-04-21T10:15:46;7.13;;;3.67;;
7813;SDS011;3952;48.364;16.022;2023-04-21T10:18:17;9.30;;;4.10;;
7813;SDS011;3952;48.364;16.022;2023-04-21T10:20:53;3.90;;;3.60;;
7813;SDS011;3952;48.364;16.022;2023-04-21T10:23:28;5.10;;;3.87;;
7813;SDS011;3952;48.364;16.022;2023-04-21T10:26:00;9.33;;;3.50;;
7813;SDS011;3952;48.364;16.022;2023-04-21T10:28:39;4.90;;;3.47;;
7813;SDS011;3952;48.364;16.022;2023-04-21T10:31:23;11.13;;;3.87;;
7813;SDS011;3952;48.364;16.022;2023-04-21T10:34:15;11.97;;;3.50;;
7813;SDS011;3952;48.364;16.022;2023-04-21T10:37:11;10.70;;;3.87;;
7813;SDS011;3952;48.364;16.022;2023-04-21T10:39:53;5.57;;;3.77;;
7813;SDS011;3952;48.364;16.022;2023-04-21T10:42:26;7.87;;;3.80;;
7813;SDS011;3952;48.364;16.022;2023-04-21T10:45:07;6.23;;;3.90;;
7813;SDS011;3952;48.364;16.022;2023-04-21T10:47:39;4.30;;;3.90;;
7813;SDS011;3952;48.364;16.022;2023-04-21T10:50:14;5.33;;;3.53;;
7813;SDS011;3952;48.364;16.022;2023-04-21T10:52:45;4.40;;;3.77;;
7813;SDS011;3952;48.364;16.022;2023-04-21T10:55:13;6.67;;;3.80;;
7813;SDS011;3952;48.364;16.022;2023-04-21T10:57:41;5.07;;;3.93;;
7813;SDS011;3952;48.364;16.022;2023-04-21T11:00:13;4.47;;;3.87;;
7813;SDS011;3952;48.364;16.022;2023-04-21T11:02:42;5.63;;;3.83;;
7813;SDS011;3952;48.364;16.022;2023-04-21T11:05:10;4.90;;;3.63;;
7813;SDS011;3952;48.364;16.022;2023-04-21T11:07:37;6.40;;;3.77;;
7813;SDS011;3952;48.364;16.022;2023-04-21T11:10:05;4.87;;;3.47;;
7813;SDS011;3952;48.364;16.022;2023-04-21T11:12:36;4.70;;;4.20;;
7813;SDS011;3952;48.364;16.022;2023-04-21T11:15:04;7.13;;;4.17;;
7813;SDS011;3952;48.364;16.022;2023-04-21T11:17:35;6.23;;;3.90;;
7813;SDS011;3952;48.364;16.022;2023-04-21T11:20:04;4.37;;;3.60;;
7813;SDS011;3952;48.364;16.022;2023-04-21T11:22:32;7.47;;;4.20;;
7813;SDS011;3952;48.364;16.022;2023-04-21T11:25:01;5.13;;;3.80;;
7813;SDS011;3952;48.364;16.022;2023-04-21T11:27:28;3.53;;;3.23;;
7813;SDS011;3952;48.364;16.022;2023-04-21T11:29:56;9.07;;;3.53;;
7813;SDS011;3952;48.364;16.022;2023-04-21T11:32:23;5.60;;;3.57;;
7813;SDS011;3952;48.364;16.022;2023-04-21T11:34:52;3.90;;;3.30;;
7813;SDS011;3952;48.364;16.022;2023-04-21T11:37:21;6.97;;;3.40;;
7813;SDS011;3952;48.364;16.022;2023-04-21T11:39:55;5.53;;;3.40;;
7813;SDS011;3952;48.364;16.022;2023-04-21T11:42:23;6.07;;;4.03;;
7813;SDS011;3952;48.364;16.022;2023-04-21T11:44:52;6.63;;;3.37;;
7813;SDS011;3952;48.364;16.022;2023-04-21T11:47:21;6.03;;;3.90;;
7813;SDS011;3952;48.364;16.022;2023-04-21T11:49:51;9.63;;;3.70;;
7813;SDS011;3952;48.364;16.022;2023-04-21T11:52:24;10.10;;;3.80;;
7813;SDS011;3952;48.364;16.022;2023-04-21T11:54:56;5.43;;;3.23;;
7813;SDS011;3952;48.364;16.022;2023-04-21T11:57:24;5.17;;;3.07;;
7813;SDS011;3952;48.364;16.022;2023-04-21T11:59:52;6.23;;;3.37;;
7813;SDS011;3952;48.364;16.022;2023-04-21T12:02:20;8.60;;;3.20;;
7813;SDS011;3952;48.364;16.022;2023-04-21T12:05:00;4.17;;;3.03;;
7813;SDS011;3952;48.364;16.022;2023-04-21T12:07:30;3.70;;;3.03;;
7813;SDS011;3952;48.364;16.022;2023-04-21T12:09:57;3.83;;;3.43;;
7813;SDS011;3952;48.364;16.022;2023-04-21T12:12:25;3.37;;;3.07;;
7813;SDS011;3952;48.364;16.022;2023-04-21T12:14:52;3.60;;;3.30;;
7813;SDS011;3952;48.364;16.022;2023-04-21T12:17:19;7.60;;;3.60;;
7813;SDS011;3952;48.364;16.022;2023-04-21T12:19:47;4.23;;;2.93;;
7813;SDS011;3952;48.364;16.022;2023-04-21T12:22:16;3.97;;;3.53;;
7813;SDS011;3952;48.364;16.022;2023-04-21T12:24:44;8.30;;;2.70;;
7813;SDS011;3952;48.364;16.022;2023-04-21T12:27:12;3.57;;;3.27;;
7813;SDS011;3952;48.364;16.022;2023-04-21T12:29:39;5.10;;;3.10;;
7813;SDS011;3952;48.364;16.022;2023-04-21T12:32:07;3.87;;;3.40;;
7813;SDS011;3952;48.364;16.022;2023-04-21T12:34:34;7.37;;;3.40;;
7813;SDS011;3952;48.364;16.022;2023-04-21T12:37:01;7.50;;;3.03;;
7813;SDS011;3952;48.364;16.022;2023-04-21T12:39:30;3.37;;;3.07;;
7813;SDS011;3952;48.364;16.022;2023-04-21T12:41:57;9.30;;;3.77;;
7813;SDS011;3952;48.364;16.022;2023-04-21T12:44:25;3.93;;;3.20;;
7813;SDS011;3952;48.364;16.022;2023-04-21T12:46:53;4.10;;;2.87;;
7813;SDS011;3952;48.364;16.022;2023-04-21T12:49:21;3.20;;;2.90;;
7813;SDS011;3952;48.364;16.022;2023-04-21T12:51:48;5.13;;;3.17;;
7813;SDS011;3952;48.364;16.022;2023-04-21T12:54:15;4.30;;;3.37;;
7813;SDS011;3952;48.364;16.022;2023-04-21T12:56:44;8.73;;;3.17;;
7813;SDS011;3952;48.364;16.022;2023-04-21T12:59:11;3.70;;;2.87;;
7813;SDS011;3952;48.364;16.022;2023-04-21T13:01:39;6.67;;;3.30;;
7813;SDS011;3952;48.364;16.022;2023-04-21T13:04:06;4.17;;;3.00;;
7813;SDS011;3952;48.364;16.022;2023-04-21T13:06:34;5.57;;;2.87;;
7813;SDS011;3952;48.364;16.022;2023-04-21T13:09:01;4.73;;;2.57;;
7813;SDS011;3952;48.364;16.022;2023-04-21T13:11:28;4.07;;;2.80;;
7813;SDS011;3952;48.364;16.022;2023-04-21T13:13:57;3.77;;;2.90;;
7813;SDS011;3952;48.364;16.022;2023-04-21T13:16:24;4.60;;;2.40;;
7813;SDS011;3952;48.364;16.022;2023-04-21T13:18:51;6.03;;;3.57;;
7813;SDS011;3952;48.364;16.022;2023-04-21T13:21:19;6.03;;;3.30;;
7813;SDS011;3952;48.364;16.022;2023-04-21T13:23:46;5.10;;;2.83;;
7813;SDS011;3952;48.364;16.022;2023-04-21T13:26:13;5.27;;;3.00;;
7813;SDS011;3952;48.364;16.022;2023-04-21T13:28:41;4.10;;;2.57;;
7813;SDS011;3952;48.364;16.022;2023-04-21T13:31:09;5.33;;;3.03;;
7813;SDS011;3952;48.364;16.022;2023-04-21T13:33:38;4.30;;;2.93;;
7813;SDS011;3952;48.364;16.022;2023-04-21T13:36:05;4.00;;;2.97;;
7813;SDS011;3952;48.364;16.022;2023-04-21T13:38:33;4.20;;;2.97;;
7813;SDS011;3952;48.364;16.022;2023-04-21T13:41:00;8.33;;;3.40;;
7813;SDS011;3952;48.364;16.022;2023-04-21T13:43:28;7.97;;;2.77;;
7813;SDS011;3952;48.364;16.022;2023-04-21T13:45:55;4.73;;;2.90;;
7813;SDS011;3952;48.364;16.022;2023-04-21T13:48:24;7.90;;;2.60;;
7813;SDS011;3952;48.364;16.022;2023-04-21T13:50:53;7.13;;;3.10;;
7813;SDS011;3952;48.364;16.022;2023-04-21T13:53:20;2.90;;;2.70;;
7813;SDS011;3952;48.364;16.022;2023-04-21T13:55:48;4.00;;;2.60;;
7813;SDS011;3952;48.364;16.022;2023-04-21T13:58:15;3.20;;;2.70;;
7813;SDS011;3952;48.364;16.022;2023-04-21T14:00:42;4.80;;;2.87;;
7813;SDS011;3952;48.364;16.022;2023-04-21T14:03:10;2.87;;;2.50;;
7813;SDS011;3952;48.364;16.022;2023-04-21T14:05:39;5.37;;;2.80;;
7813;SDS011;3952;48.364;16.022;2023-04-21T14:08:06;4.93;;;3.00;;
7813;SDS011;3952;48.364;16.022;2023-04-21T14:10:33;4.83;;;2.60;;
7813;SDS011;3952;48.364;16.022;2023-04-21T14:13:00;3.13;;;2.77;;
7813;SDS011;3952;48.364;16.022;2023-04-21T14:15:29;5.10;;;2.60;;
7813;SDS011;3952;48.364;16.022;2023-04-21T14:17:56;5.77;;;2.80;;
7813;SDS011;3952;48.364;16.022;2023-04-21T14:20:24;5.63;;;2.77;;
7813;SDS011;3952;48.364;16.022;2023-04-21T14:22:53;3.43;;;2.67;;
7813;SDS011;3952;48.364;16.022;2023-04-21T14:25:20;6.27;;;3.00;;
7813;SDS011;3952;48.364;16.022;2023-04-21T14:27:47;5.57;;;2.83;;
7813;SDS011;3952;48.364;16.022;2023-04-21T14:30:15;4.40;;;2.73;;
7813;SDS011;3952;48.364;16.022;2023-04-21T14:32:42;3.93;;;2.67;;
7813;SDS011;3952;48.364;16.022;2023-04-21T14:35:10;5.30;;;2.60;;
7813;SDS011;3952;48.364;16.022;2023-04-21T14:37:38;3.47;;;2.60;;
7813;SDS011;3952;48.364;16.022;2023-04-21T14:40:07;7.57;;;3.10;;
7813;SDS011;3952;48.364;16.022;2023-04-21T14:42:35;6.10;;;2.97;;
7813;SDS011;3952;48.364;16.022;2023-04-21T14:45:02;6.27;;;3.03;;
7813;SDS011;3952;48.364;16.022;2023-04-21T14:47:30;5.93;;;2.60;;
7813;SDS011;3952;48.364;16.022;2023-04-21T14:49:58;4.37;;;2.63;;
7813;SDS011;3952;48.364;16.022;2023-04-21T14:52:25;3.87;;;2.70;;
7813;SDS011;3952;48.364;16.022;2023-04-21T14:54:52;3.53;;;2.60;;